Jemez Springs, Valles Caldera, New Mexico Weather observations

Data are for 10 minute period ending at time listed.
 Day   Time   Solar   Ave.   Ave.  Ave.  Vector  Max.   Baro.   Total    
  of    of     Rad.   Air    Rel.  Wind   Wind   Wind  Press.  Precip.   
Year   Day            Temp.  Hum.  Speed  Dir.   Gust                    
2016   (MST)  Kw/m2    F      %     mph   deg.    mph    mb.     in.     
-------------------------------------------------------------------------
 211    5:30   0.01   58.8    60    7.1     8    11.9   813.2    0.00 
 211    5:40   0.01   58.8    60    6.3    10    10.2   813.2    0.00 
 211    5:50   0.02   58.7    60    6.1     8    11.3   813.3    0.00 
 211    6:00   0.02   58.8    61    5.9    15    12.5   813.4    0.00 
 211    6:10   0.03   59.1    60    6.2    13    11.9   813.4    0.00 
 211    6:20   0.03   59.2    60    6.6    22    11.3   813.4    0.00 
 211    6:30   0.04   59.5    60    7.1    16    10.8   813.4    0.00 
 211    6:40   0.22   60.8    58    7.9    13    13.1   813.4    0.00 
 211    6:50   0.26   62.7    54    8.3    10    14.9   813.3    0.00 
 211    7:00   0.29   64.0    52    8.5    19    12.5   813.3    0.00 
 211    7:10   0.32   65.3    51    7.7    21    13.1   813.3    0.00 
 211    7:20   0.36   66.8    50    6.9    23    11.9   813.2    0.00 
 211    7:30   0.40   68.2    48    6.3    28    10.2   813.1    0.00 
 211    7:40   0.43   70.0    46    5.8    26     9.0   813.0    0.00 
 211    7:50   0.47   71.6    44    5.2    16     9.0   812.8    0.00 
 211    8:00   0.50   73.8    42    4.5    28     7.2   812.8    0.00 
 211    8:10   0.54   75.8    38    2.7    62     4.8   812.7    0.00 
 211    8:20   0.57   78.7    32    2.6   153     4.8   812.7    0.00 
 211    8:30   0.60   79.2    31    3.2   140     4.8   812.5    0.00 
 211    8:40   0.63   78.8    32    4.2   166     7.2   812.5    0.00 
 211    8:50   0.66   78.8    32    3.2   156     6.0   812.6    0.00 
 211    9:00   0.69   80.3    30    3.6   137     6.6   812.7    0.00 
 211    9:10   0.71   80.6    30    5.0   176     7.8   812.6    0.00 
 211    9:20   0.74   81.2    29    4.0   164     6.6   812.6    0.00 
 211    9:30   0.76   81.6    28    4.6   158     7.2   812.6    0.00 
 211    9:40   0.79   82.5    27    5.9   171    13.1   812.6    0.00 
 211    9:50   0.81   82.1    28    6.6   160    12.5   812.6    0.00 
 211   10:00   0.83   83.3    27    6.5   180    11.3   812.6    0.00 
 211   10:10   0.85   83.3    27    7.2   177    12.5   812.6    0.00 
 211   10:20   0.87   83.8    27    7.1   172    14.9   812.6    0.00 
 211   10:30   0.89   83.8    26    7.0   173    13.7   812.5    0.00 
 211   10:40   0.98   84.6    26    7.1   176    15.5   812.5    0.00 
 211   10:50   0.89   85.1    25    6.5   184    13.1   812.3    0.00 
 211   11:00   1.02   85.7    25    9.0   174    14.3   812.1    0.00 
 211   11:10   1.01   86.1    25    7.6   174    13.7   812.1    0.00 
 211   11:20   0.50   85.8    26    5.9   190    11.7   812.0    0.00 
 211   11:30   0.41   85.4    25    6.8   182    13.1   811.9    0.00 
 211   11:40   0.33   84.7    25    6.8   173    11.9   811.8    0.00 
 211   11:50   0.28   83.8    25    7.3   178    13.7   811.8    0.00 
 211   12:00   0.98   85.8    24    4.6   158    11.9   811.8    0.00 
 211   12:10   0.80   87.2    23    6.2   171    12.5   811.7    0.00 
 211   12:20   0.82   88.9    22    5.6   184    10.2   811.6    0.00 
 211   12:30   0.68   86.8    23    5.6   176     9.6   811.3    0.00 
 211   12:40   0.98   88.0    22    8.4   193    13.7   811.0    0.00 
 211   12:50   0.96   89.2    20    5.6   190    11.9   810.7    0.00 
 211   13:00   0.96   89.2    20    7.3   184    13.7   810.7    0.00 
 211   13:10   0.94   89.1    20    7.1   165    13.1   810.5    0.00 
 211   13:20   0.83   89.8    20    7.2   169    14.9   810.2    0.00 
 211   13:30   0.57   89.0    20    8.2   188    17.3   810.1    0.00 
 211   13:40   0.80   88.6    21    8.2   178    14.9   809.9    0.00 
 211   13:50   0.90   90.5    19    5.7   182     9.0   809.7    0.00 
 211   14:00   0.92   91.0    19    9.1   180    18.5   809.6    0.00 
 211   14:10   0.92   91.1    19    8.6   176    17.3   809.5    0.00 
 211   14:20   0.45   91.1    19    8.6   178    16.7   809.3    0.00 
 211   14:30   0.21   87.9    21    8.8   173    17.9   809.2    0.00 
 211   14:40   0.18   87.2    22    7.3   157    16.1   809.7    0.00 
 211   14:50   0.06   83.1    21   13.5   357    26.2   810.5    0.00 
 211   15:00   0.02   77.6    27   10.9     0    25.6   811.4    0.00 
 211   15:10   0.01   73.9    36    8.3   311    17.9   812.1    0.00 
 211   15:20   0.01   69.9    59    8.1   209    20.3   812.0    0.05 
 211   15:30   0.01   63.0    74    5.0   165    14.3   811.8    0.00 
 211   15:40   0.01   61.6    82    2.6     8     6.6   811.5    0.00 
 211   15:50   0.01   62.2    76    5.9   350    14.3   810.7    0.00 
 211   16:00   0.01   62.7    77    4.2     0    10.2   810.7    0.00 
 211   16:10   0.01   63.0    80    4.4   326    10.8   811.3    0.00 
 211   16:20   0.01   63.4    77    6.1   358     9.6   811.8    0.00 
 211   16:30   0.01   63.4    77    5.8     5    11.3   812.0    0.00 
 211   16:40   0.02   63.2    77    5.7    10     9.0   812.1    0.00 
 211   16:50   0.03   63.1    77    6.1     5    11.3   812.4    0.00 
 211   17:00   0.04   63.5    74    4.6   352     9.0   812.4    0.00 
 211   17:10   0.05   63.6    74    4.6    32    10.2   812.6    0.00 
 211   17:20   0.08   64.2    71    3.8   305     6.0   812.8    0.00 
 211   17:30   0.11   64.8    70    3.5    24     5.4   812.8    0.00 
 211   17:40   0.11   65.1    70    4.6   178     8.4   812.1    0.00 
 211   17:50   0.13   66.0    70    3.9   344     7.2   811.9    0.00 
 211   18:00   0.11   66.1    68    3.4   334     9.0   811.8    0.00 
 211   18:10   0.08   65.9    70    1.9    89     4.2   811.5    0.00 
 211   18:20   0.07   65.9    71    2.3   278     4.2   811.5    0.00 
 211   18:30   0.06   66.0    70    3.5   352     6.0   811.5    0.00 
 211   18:40   0.05   65.5    71    4.3     7     7.8   811.5    0.00 
 211   18:50   0.04   65.4    70    4.1   360     7.2   811.4    0.00 
 211   19:00   0.03   64.8    73    5.8    13     9.6   811.1    0.00 
 211   19:10   0.02   64.2    74    5.5    11    10.2   811.1    0.00 
 211   19:20   0.01   63.7    74    6.0    10    11.3   811.1    0.00 
 211   19:30   0.00   63.2    75    4.9    13     8.4   811.1    0.00 
 211   19:40   0.00   62.6    76    5.5     8    10.2   811.2    0.00 
 211   19:50   0.00   62.3    76    5.8     8     9.6   811.2    0.00 
 211   20:00   0.00   62.2    75    6.0     4    11.9   811.4    0.00 
 211   20:10   0.00   62.4    72    6.3     0    11.9   811.5    0.00 
 211   20:20   0.00   61.7    74    6.4    10    11.3   811.6    0.00 
 211   20:30   0.00   61.3    73    8.2     4    14.9   811.7    0.00 
 211   20:40   0.00   60.9    73    7.0    10    11.9   811.7    0.00 
 211   20:50   0.00   61.1    71    9.2     8    14.3   811.9    0.00 
 211   21:00   0.00   61.5    68    6.5    18    10.8   812.1    0.00 
 211   21:10   0.00   61.4    68    5.9     5    11.9   812.1    0.00 
 211   21:20   0.00   61.3    67    6.8     3    16.1   812.1    0.00 
 211   21:30   0.00   61.1    66    5.2     6     9.0   812.1    0.00 
 211   21:40   0.00   61.4    64    6.4   355    12.5   812.2    0.00 
 211   21:50   0.00   61.0    65    5.6   355     9.6   812.3    0.00 
 211   22:00   0.00   60.5    67    5.8     3    11.9   812.5    0.00 
 211   22:10   0.00   60.2    68    5.8     5    11.9   812.6    0.00 
 211   22:20   0.00   60.5    66    4.8     0     9.6   812.7    0.00 
 211   22:30   0.00   61.1    64    7.1   346    11.3   812.9    0.00 
 211   22:40   0.00   60.8    65    5.3     6     9.9   812.9    0.00 
 211   22:50   0.00   60.9    65    4.4   357     9.0   812.9    0.00 
 211   23:00   0.00   61.2    64    6.0     1    11.3   812.9    0.00 
 211   23:10   0.00   60.7    66    4.7    21     9.0   813.0    0.00 
 211   23:20   0.00   60.4    66    5.8     2    14.3   812.9    0.00 
 211   23:30   0.00   60.4    66    5.4     5    11.9   812.8    0.00 
 211   23:40   0.00   60.1    66    4.4   345    10.2   812.6    0.00 
 211   23:50   0.00   60.4    65    3.8   349     7.2   812.4    0.00 
 212    0:00   0.00   59.8    67    6.2     9    12.2   812.0    0.00 
 212    0:10   0.00   59.8    67    6.3     5    11.9   812.1    0.00 
 212    0:20   0.00   60.1    65    6.7   360    11.9   812.2    0.00 
 212    0:30   0.00   60.5    64    6.3     5    11.3   812.3    0.00 
 212    0:40   0.00   60.2    65    5.9   347    12.5   812.3    0.00 
 212    0:50   0.00   60.5    63    4.6     2    10.8   812.4    0.00 
 212    1:00   0.00   60.5    63    4.9     6     7.8   812.4    0.00 
 212    1:10   0.00   60.7    63    3.5   346     8.4   812.4    0.00 
 212    1:20   0.00   61.0    62    5.6   353    10.2   812.5    0.00 
 212    1:30   0.00   60.7    63    4.4    27     9.6   812.6    0.00 
 212    1:40   0.00   60.3    64    3.5     0     6.0   812.7    0.00 
 212    1:50   0.00   60.0    64    4.5     2     7.8   812.6    0.00 
 212    2:00   0.00   59.5    66    4.7   347     8.4   812.6    0.00 
 212    2:10   0.00   59.3    66    5.1    13     8.4   812.7    0.00 
 212    2:20   0.00   58.8    67    6.3     7    12.5   812.8    0.00 
 212    2:30   0.00   58.4    68    5.4    12    10.8   812.8    0.00 
 212    2:40   0.00   58.2    68    6.3    15    11.3   812.8    0.00 
 212    2:50   0.00   57.8    69    6.0     5    13.1   812.7    0.00 
 212    3:00   0.00   57.8    69    6.2     5    11.3   812.6    0.00 
 212    3:10   0.00   57.9    68    5.8     4    10.8   812.4    0.00 
 212    3:20   0.00   57.6    69    6.3     9    11.9   812.4    0.00 
 212    3:30   0.00   57.5    69    5.6    12    11.3   812.4    0.00 
 212    3:40   0.00   57.6    68    5.7   357    11.3   812.4    0.00 
 212    3:50   0.00   57.7    68    4.3   358     9.0   812.4    0.00 
 212    4:00   0.00   57.7    67    5.7   358    14.3   812.2    0.00 
 212    4:10   0.00   57.5    68    6.6   360    11.9   812.1    0.00 
 212    4:20   0.00   57.4    68    6.0    10    11.3   812.2    0.00 
 212    4:30   0.00   57.5    68    6.1     1    11.3   812.2    0.00 
 212    4:40   0.00   57.2    68    5.5   357    11.3   812.3    0.00 
 212    4:50   0.00   57.3    67    5.4   352    10.8   812.4    0.00 
 212    5:00   0.00   57.5    67    4.3   352    10.8   812.4    0.00 
 212    5:10   0.00   57.2    68    5.8   356    11.3   812.4    0.00 
 212    5:20   0.01   57.1    67    7.3     1    11.9   812.3    0.00 

Return to Jemez Springs, Valles Caldera graphs page.


Western Regional Climate Center,wrcc@dri.edu